Time;durP1;ratioP1;P1;durP2;ratioP2;P2;SDS_P1;SDS_P2;PMS_P1;PMS_P2;Temp;Humidity;BMP_temperature;BMP_pressure;BME280_temperature;BME280_humidity;BME280_pressure;Samples;Min_cycle;Max_cycle;Signal;HPM_P1;HPM_P2
2023/03/09 00:00:48;;;;;;;;;;;7.40;62.10;;;;;;5073221;28;19952;-91
2023/03/09 00:03:16;;;;;;;;;;;7.40;62.20;;;;;;5054496;28;19995;-92
2023/03/09 00:05:43;;;;;;;;;;;7.40;62.20;;;;;;5054552;28;20012;-91
2023/03/09 00:08:08;;;;;;;;;;;7.40;62.10;;;;;;5072550;28;20019;-92
2023/03/09 00:10:38;;;;;;;;;;;7.40;62.10;;;;;;5054407;28;19947;-90
2023/03/09 00:13:03;;;;;;;;;;;7.40;62.10;;;;;;5072239;28;20367;-89
2023/03/09 00:15:30;;;;;;;;;;;7.40;62.10;;;;;;5054588;28;20465;-91
2023/03/09 00:17:55;;;;;;;;;;;7.40;62.00;;;;;;5054104;28;19908;-89
2023/03/09 00:20:22;;;;;;;;;;;7.40;62.20;;;;;;5072491;28;19909;-91
2023/03/09 00:22:48;;;;;;;;;;;7.40;62.30;;;;;;5072481;28;19908;-91
2023/03/09 00:25:14;;;;;;;;;;;7.40;62.30;;;;;;5072317;28;19921;-88
2023/03/09 00:27:41;;;;;;;;;;;7.40;62.30;;;;;;5054200;28;20267;-90
2023/03/09 00:30:08;;;;;;;;;;;7.40;62.30;;;;;;5072474;28;20225;-90
2023/03/09 00:32:33;;;;;;;;;;;7.40;62.40;;;;;;5054472;28;19914;-90
2023/03/09 00:34:59;;;;;;;;;;;7.40;62.50;;;;;;5072118;28;19924;-90
2023/03/09 00:37:25;;;;;;;;;;;7.40;62.40;;;;;;5072923;28;19939;-88
2023/03/09 00:39:50;;;;;;;;;;;7.40;62.40;;;;;;5072211;28;19909;-90
2023/03/09 00:42:16;;;;;;;;;;;7.50;62.30;;;;;;5054152;28;19920;-89
2023/03/09 00:44:41;;;;;;;;;;;7.40;62.30;;;;;;5072105;28;19912;-90
2023/03/09 00:47:07;;;;;;;;;;;7.40;62.40;;;;;;5071915;28;19917;-89
2023/03/09 00:49:33;;;;;;;;;;;7.40;62.40;;;;;;5071991;28;19932;-90
2023/03/09 00:51:58;;;;;;;;;;;7.50;62.50;;;;;;5053933;28;19946;-89
2023/03/09 00:54:24;;;;;;;;;;;7.40;62.50;;;;;;5072052;28;20306;-90
2023/03/09 00:56:49;;;;;;;;;;;7.40;62.50;;;;;;5071437;28;19943;-89
2023/03/09 00:59:15;;;;;;;;;;;7.40;62.30;;;;;;5053403;28;19908;-88
2023/03/09 01:01:40;;;;;;;;;;;7.40;62.30;;;;;;5053404;28;19970;-89
2023/03/09 01:04:06;;;;;;;;;;;7.50;62.30;;;;;;5071630;28;19908;-90
2023/03/09 01:06:32;;;;;;;;;;;7.40;62.50;;;;;;5071506;28;19924;-89
2023/03/09 01:08:57;;;;;;;;;;;7.50;62.40;;;;;;5071883;28;19908;-88
2023/03/09 01:11:24;;;;;;;;;;;7.50;62.20;;;;;;5053645;28;19923;-89
2023/03/09 01:13:51;;;;;;;;;;;7.50;62.30;;;;;;5053698;28;19921;-89
2023/03/09 01:16:16;;;;;;;;;;;7.50;62.30;;;;;;5071469;28;19920;-89
2023/03/09 01:18:42;;;;;;;;;;;7.60;62.30;;;;;;5071054;28;20359;-88
2023/03/09 01:21:08;;;;;;;;;;;7.60;62.30;;;;;;5071484;28;19919;-90
2023/03/09 01:23:35;;;;;;;;;;;7.60;62.20;;;;;;5053111;28;20404;-90
2023/03/09 01:26:00;;;;;;;;;;;7.70;62.20;;;;;;5053094;28;20014;-88
2023/03/09 01:28:26;;;;;;;;;;;7.70;62.10;;;;;;5053239;28;20434;-88
2023/03/09 01:30:52;;;;;;;;;;;7.70;62.10;;;;;;5053166;28;19916;-91
2023/03/09 01:33:17;;;;;;;;;;;7.70;61.90;;;;;;5052897;28;20277;-89
2023/03/09 01:35:43;;;;;;;;;;;7.70;61.90;;;;;;5053199;28;19924;-90
2023/03/09 01:38:08;;;;;;;;;;;7.70;61.80;;;;;;5052792;28;20244;-89
2023/03/09 01:40:34;;;;;;;;;;;7.60;61.70;;;;;;5052741;28;19912;-89
2023/03/09 01:43:01;;;;;;;;;;;7.50;61.60;;;;;;5071021;28;19966;-90
2023/03/09 01:45:29;;;;;;;;;;;7.40;61.70;;;;;;5070774;28;20019;-89
2023/03/09 01:47:59;;;;;;;;;;;7.30;61.60;;;;;;5052601;28;20325;-89
2023/03/09 01:50:26;;;;;;;;;;;7.30;61.90;;;;;;5070476;28;19923;-90
2023/03/09 01:52:53;;;;;;;;;;;7.20;61.90;;;;;;5052585;28;19967;-89
2023/03/09 01:55:22;;;;;;;;;;;7.20;62.00;;;;;;5052767;28;20330;-90
2023/03/09 01:57:59;;;;;;;;;;;7.10;62.10;;;;;;5070533;28;19928;-89
2023/03/09 02:00:25;;;;;;;;;;;7.10;62.20;;;;;;5052619;28;19991;-90
2023/03/09 02:02:52;;;;;;;;;;;7.00;62.30;;;;;;5052239;28;20015;-90
2023/03/09 02:05:24;;;;;;;;;;;7.00;62.40;;;;;;5070469;28;19912;-89
2023/03/09 02:07:50;;;;;;;;;;;6.90;62.50;;;;;;5069635;28;19916;-89
2023/03/09 02:10:25;;;;;;;;;;;6.90;62.50;;;;;;5052190;28;19909;-90
2023/03/09 02:12:53;;;;;;;;;;;6.90;62.60;;;;;;5070646;28;20010;-91
2023/03/09 02:15:19;;;;;;;;;;;6.90;62.60;;;;;;5070007;28;19946;-90
2023/03/09 02:17:45;;;;;;;;;;;6.90;62.70;;;;;;5052493;28;19932;-90
2023/03/09 02:20:11;;;;;;;;;;;6.90;62.70;;;;;;5070482;28;19909;-91
2023/03/09 02:22:37;;;;;;;;;;;6.90;62.70;;;;;;5071385;28;19962;-90
2023/03/09 02:25:06;;;;;;;;;;;6.90;62.70;;;;;;5052703;28;19916;-91
2023/03/09 02:27:33;;;;;;;;;;;6.90;62.70;;;;;;5053319;28;19908;-91
2023/03/09 02:29:58;;;;;;;;;;;6.90;62.80;;;;;;5071131;28;19908;-91
2023/03/09 02:32:24;;;;;;;;;;;6.90;62.80;;;;;;5052930;28;19958;-92
2023/03/09 02:34:55;;;;;;;;;;;6.90;62.80;;;;;;5052550;28;19916;-93
2023/03/09 02:37:32;;;;;;;;;;;6.90;62.80;;;;;;5053790;28;19924;-93
2023/03/09 02:40:01;;;;;;;;;;;7.00;62.80;;;;;;5053415;28;19909;-93
2023/03/09 02:42:31;;;;;;;;;;;7.00;62.70;;;;;;5053076;28;19959;-94
2023/03/09 02:45:05;;;;;;;;;;;7.00;62.70;;;;;;5053614;28;20003;-94
2023/03/09 02:47:36;;;;;;;;;;;7.00;62.60;;;;;;5070521;28;20287;-94
2023/03/09 02:50:03;;;;;;;;;;;7.00;62.60;;;;;;5070704;28;19912;-93
2023/03/09 02:52:30;;;;;;;;;;;7.00;62.50;;;;;;5070835;28;20282;-92
2023/03/09 02:54:59;;;;;;;;;;;7.00;62.50;;;;;;5071035;28;19917;-92
2023/03/09 02:57:35;;;;;;;;;;;7.00;62.50;;;;;;5069828;28;20019;-96
2023/03/09 03:00:03;;;;;;;;;;;7.00;62.40;;;;;;5052380;28;19915;-92
2023/03/09 03:02:37;;;;;;;;;;;7.00;62.40;;;;;;5071151;28;19940;-95
2023/03/09 03:05:03;;;;;;;;;;;7.10;62.40;;;;;;5052836;28;19916;-95
2023/03/09 03:07:31;;;;;;;;;;;7.10;62.40;;;;;;5070062;28;19916;-93
2023/03/09 03:10:02;;;;;;;;;;;7.10;62.40;;;;;;5052503;28;19916;-93
2023/03/09 03:12:29;;;;;;;;;;;7.10;62.40;;;;;;5053979;28;19942;-93
2023/03/09 03:15:00;;;;;;;;;;;7.10;62.40;;;;;;5071942;28;20015;-91
2023/03/09 03:17:25;;;;;;;;;;;7.10;62.40;;;;;;5070103;28;19909;-91
2023/03/09 03:19:54;;;;;;;;;;;7.10;62.40;;;;;;5056516;28;19916;-92
2023/03/09 03:22:19;;;;;;;;;;;7.10;62.30;;;;;;5057952;28;20121;-94
2023/03/09 03:24:45;;;;;;;;;;;7.10;62.30;;;;;;5075049;28;19924;-95
2023/03/09 03:27:11;;;;;;;;;;;7.10;62.30;;;;;;5056120;28;20317;-91
2023/03/09 03:29:36;;;;;;;;;;;7.10;62.30;;;;;;5073209;28;19916;-93
2023/03/09 03:32:02;;;;;;;;;;;7.20;62.30;;;;;;5055922;28;20213;-94
2023/03/09 03:34:28;;;;;;;;;;;7.20;62.30;;;;;;5055306;28;19982;-91
2023/03/09 03:36:54;;;;;;;;;;;7.20;62.20;;;;;;5073889;28;20302;-94
2023/03/09 03:39:20;;;;;;;;;;;7.20;62.20;;;;;;5073181;28;19951;-92
2023/03/09 03:41:46;;;;;;;;;;;7.10;62.20;;;;;;5073524;28;20000;-93
2023/03/09 03:44:12;;;;;;;;;;;7.20;62.20;;;;;;5074118;28;19916;-91
2023/03/09 03:46:38;;;;;;;;;;;7.20;62.20;;;;;;5073254;28;20418;-91
2023/03/09 03:49:04;;;;;;;;;;;7.20;62.20;;;;;;5055503;28;20003;-92
2023/03/09 03:51:30;;;;;;;;;;;7.20;62.20;;;;;;5073161;28;19912;-92
2023/03/09 03:53:55;;;;;;;;;;;7.20;62.30;;;;;;5055504;28;19909;-91
2023/03/09 03:56:21;;;;;;;;;;;7.10;62.20;;;;;;5073238;28;20508;-89
2023/03/09 03:58:47;;;;;;;;;;;7.20;62.20;;;;;;5054954;28;20211;-93
2023/03/09 04:01:13;;;;;;;;;;;7.20;62.30;;;;;;5073036;28;19916;-92
2023/03/09 04:03:38;;;;;;;;;;;7.10;62.30;;;;;;5054775;28;20363;-92
2023/03/09 04:06:04;;;;;;;;;;;7.20;62.30;;;;;;5054999;28;20394;-90
2023/03/09 04:08:30;;;;;;;;;;;7.10;62.30;;;;;;5073196;28;19928;-91
2023/03/09 04:10:56;;;;;;;;;;;7.10;62.20;;;;;;5054921;28;19921;-90
2023/03/09 04:13:24;;;;;;;;;;;7.20;62.20;;;;;;5054766;28;19927;-88
2023/03/09 04:15:49;;;;;;;;;;;7.20;62.10;;;;;;5054630;28;20644;-89
2023/03/09 04:18:15;;;;;;;;;;;7.20;62.10;;;;;;5054874;28;20369;-90
2023/03/09 04:20:41;;;;;;;;;;;7.20;62.10;;;;;;5054053;28;19917;-90
2023/03/09 04:23:07;;;;;;;;;;;7.20;62.10;;;;;;5072860;28;19958;-90
2023/03/09 04:25:33;;;;;;;;;;;7.20;62.00;;;;;;5054322;28;19916;-92
2023/03/09 04:27:58;;;;;;;;;;;7.20;62.10;;;;;;5054079;28;20023;-90
2023/03/09 04:30:24;;;;;;;;;;;7.20;62.10;;;;;;5071105;28;19916;-90
2023/03/09 04:32:50;;;;;;;;;;;7.20;62.10;;;;;;5072752;28;19919;-90
2023/03/09 04:35:15;;;;;;;;;;;7.30;62.00;;;;;;5053959;28;20015;-88
2023/03/09 04:37:43;;;;;;;;;;;7.20;62.10;;;;;;5072608;28;19943;-94
2023/03/09 04:40:09;;;;;;;;;;;7.20;62.10;;;;;;5054336;28;20406;-90
2023/03/09 04:42:35;;;;;;;;;;;7.30;62.10;;;;;;5071889;28;19936;-90
2023/03/09 04:45:01;;;;;;;;;;;7.30;62.10;;;;;;5053888;28;20429;-90
2023/03/09 04:47:27;;;;;;;;;;;7.30;61.90;;;;;;5072187;28;19912;-92
2023/03/09 04:49:52;;;;;;;;;;;7.30;62.00;;;;;;5053957;28;19917;-92
2023/03/09 04:52:18;;;;;;;;;;;7.30;62.00;;;;;;5054115;28;19913;-90
2023/03/09 04:54:43;;;;;;;;;;;7.30;62.00;;;;;;5053657;28;20019;-90
2023/03/09 04:57:09;;;;;;;;;;;7.30;62.00;;;;;;5054030;28;19936;-89
2023/03/09 04:59:35;;;;;;;;;;;7.30;62.00;;;;;;5053415;28;19920;-92
2023/03/09 05:02:00;;;;;;;;;;;7.30;61.90;;;;;;5072517;28;19909;-90
2023/03/09 05:04:26;;;;;;;;;;;7.30;61.90;;;;;;5053920;28;19928;-88
2023/03/09 05:06:52;;;;;;;;;;;7.30;61.90;;;;;;5055079;28;19946;-92
2023/03/09 05:09:17;;;;;;;;;;;7.30;61.80;;;;;;5053883;28;19912;-90
2023/03/09 05:11:43;;;;;;;;;;;7.30;61.70;;;;;;5053987;28;19916;-88
2023/03/09 05:14:09;;;;;;;;;;;7.30;61.70;;;;;;5071492;28;19915;-90
2023/03/09 05:16:34;;;;;;;;;;;7.20;61.90;;;;;;5053267;28;20347;-90
2023/03/09 05:19:00;;;;;;;;;;;7.20;62.00;;;;;;5071320;28;19944;-90
2023/03/09 05:21:26;;;;;;;;;;;7.20;62.10;;;;;;5053546;28;20367;-90
2023/03/09 05:23:51;;;;;;;;;;;7.30;62.00;;;;;;5071638;28;19915;-90
2023/03/09 05:26:17;;;;;;;;;;;7.20;62.10;;;;;;5053955;28;19928;-92
2023/03/09 05:28:43;;;;;;;;;;;7.30;62.10;;;;;;5053438;28;20007;-90
2023/03/09 05:31:10;;;;;;;;;;;7.30;62.10;;;;;;5071550;28;20284;-93
2023/03/09 05:33:36;;;;;;;;;;;7.30;62.00;;;;;;5070992;28;19915;-93
2023/03/09 05:36:02;;;;;;;;;;;7.20;62.00;;;;;;5070495;28;20518;-91
2023/03/09 05:38:28;;;;;;;;;;;7.30;62.10;;;;;;5052882;28;19961;-89
2023/03/09 05:40:54;;;;;;;;;;;7.30;62.10;;;;;;5053299;28;19923;-88
2023/03/09 05:43:19;;;;;;;;;;;7.20;62.20;;;;;;5070991;28;20006;-90
2023/03/09 05:45:52;;;;;;;;;;;7.30;62.10;;;;;;5070897;28;20352;-90
2023/03/09 05:48:18;;;;;;;;;;;7.20;62.10;;;;;;5070573;28;19912;-90
2023/03/09 05:50:45;;;;;;;;;;;7.30;62.10;;;;;;5070374;28;20152;-89
2023/03/09 05:53:11;;;;;;;;;;;7.30;62.10;;;;;;5052593;28;19909;-92
2023/03/09 05:55:37;;;;;;;;;;;7.30;62.10;;;;;;5052443;28;19962;-91
2023/03/09 05:58:02;;;;;;;;;;;7.30;62.10;;;;;;5070961;28;19970;-91
2023/03/09 06:00:28;;;;;;;;;;;7.30;62.00;;;;;;5052633;28;20446;-93
2023/03/09 06:02:54;;;;;;;;;;;7.30;62.00;;;;;;5053579;28;19909;-91
2023/03/09 06:05:21;;;;;;;;;;;7.30;62.00;;;;;;5070710;28;20223;-91
2023/03/09 06:07:53;;;;;;;;;;;7.30;62.00;;;;;;5052548;28;19908;-93
2023/03/09 06:10:19;;;;;;;;;;;7.30;62.00;;;;;;5052573;28;19920;-91
2023/03/09 06:12:44;;;;;;;;;;;7.30;62.10;;;;;;5069974;28;19951;-89
2023/03/09 06:15:10;;;;;;;;;;;7.40;62.10;;;;;;5070380;28;19964;-90
2023/03/09 06:17:35;;;;;;;;;;;7.40;62.10;;;;;;5070186;28;20330;-91
2023/03/09 06:20:02;;;;;;;;;;;7.40;62.10;;;;;;5070396;28;19916;-93
2023/03/09 06:22:28;;;;;;;;;;;7.40;62.10;;;;;;5070750;28;19913;-93
2023/03/09 06:24:53;;;;;;;;;;;7.40;62.10;;;;;;5070588;28;19919;-90
2023/03/09 06:27:19;;;;;;;;;;;7.40;62.00;;;;;;5052136;28;19917;-91
2023/03/09 06:29:45;;;;;;;;;;;7.40;62.10;;;;;;5051769;28;19913;-90
2023/03/09 06:32:11;;;;;;;;;;;7.50;62.10;;;;;;5052032;28;20274;-90
2023/03/09 06:34:37;;;;;;;;;;;7.50;62.10;;;;;;5052158;28;19924;-93
2023/03/09 06:37:03;;;;;;;;;;;7.50;62.10;;;;;;5051956;28;19916;-90
2023/03/09 06:39:28;;;;;;;;;;;7.50;62.20;;;;;;5070451;28;20005;-91
2023/03/09 06:41:54;;;;;;;;;;;7.60;62.10;;;;;;5070227;28;19959;-90
2023/03/09 06:44:20;;;;;;;;;;;7.70;62.10;;;;;;5052152;28;19913;-91
2023/03/09 06:46:49;;;;;;;;;;;7.70;62.10;;;;;;5070802;28;19935;-89
2023/03/09 06:49:14;;;;;;;;;;;7.70;62.00;;;;;;5069444;28;20420;-90
2023/03/09 06:51:41;;;;;;;;;;;7.80;61.90;;;;;;5051610;28;19956;-90
2023/03/09 06:54:06;;;;;;;;;;;7.80;61.90;;;;;;5069643;28;20011;-89
2023/03/09 06:56:32;;;;;;;;;;;7.80;61.90;;;;;;5051834;28;20454;-92
2023/03/09 06:58:57;;;;;;;;;;;7.90;61.90;;;;;;5070306;28;20270;-89
2023/03/09 07:01:26;;;;;;;;;;;7.90;62.00;;;;;;5051922;28;19970;-93
2023/03/09 07:03:51;;;;;;;;;;;7.90;62.00;;;;;;5069738;28;19916;-90
2023/03/09 07:06:17;;;;;;;;;;;8.10;62.20;;;;;;5051914;28;19919;-90
2023/03/09 07:08:43;;;;;;;;;;;8.10;62.20;;;;;;5070027;28;19917;-89
2023/03/09 07:11:09;;;;;;;;;;;8.20;62.00;;;;;;5051975;28;19951;-89
2023/03/09 07:13:35;;;;;;;;;;;8.20;61.80;;;;;;5052556;28;19958;-89
2023/03/09 07:16:01;;;;;;;;;;;8.30;61.70;;;;;;5070064;28;19928;-91
2023/03/09 07:18:27;;;;;;;;;;;8.30;61.70;;;;;;5070225;28;19912;-89
2023/03/09 07:20:53;;;;;;;;;;;8.30;61.70;;;;;;5051783;28;20345;-91
2023/03/09 07:23:19;;;;;;;;;;;8.40;61.80;;;;;;5051615;28;19966;-91
2023/03/09 07:25:48;;;;;;;;;;;8.40;61.90;;;;;;5051344;28;20360;-90
2023/03/09 07:28:14;;;;;;;;;;;8.50;61.80;;;;;;5051881;28;19924;-93
2023/03/09 07:30:39;;;;;;;;;;;8.70;61.90;;;;;;5069401;28;19924;-90
2023/03/09 07:33:05;;;;;;;;;;;8.70;61.80;;;;;;5070120;28;19912;-91
2023/03/09 07:35:31;;;;;;;;;;;8.90;61.80;;;;;;5069890;28;19920;-94
2023/03/09 07:37:57;;;;;;;;;;;9.00;61.60;;;;;;5069153;28;19916;-91
2023/03/09 07:40:24;;;;;;;;;;;8.90;61.00;;;;;;5051842;28;19912;-92
2023/03/09 07:42:52;;;;;;;;;;;8.90;60.90;;;;;;5069656;28;19917;-89
2023/03/09 07:45:18;;;;;;;;;;;8.80;61.10;;;;;;5051628;28;19924;-91
2023/03/09 07:47:43;;;;;;;;;;;8.90;61.30;;;;;;5069535;28;19913;-90
2023/03/09 07:50:09;;;;;;;;;;;8.90;61.40;;;;;;5051322;28;19920;-90
2023/03/09 07:52:35;;;;;;;;;;;8.90;61.30;;;;;;5069601;28;20007;-90
2023/03/09 07:55:00;;;;;;;;;;;9.00;61.40;;;;;;5051264;28;19927;-90
2023/03/09 07:57:30;;;;;;;;;;;9.10;61.60;;;;;;5051790;28;19916;-92
2023/03/09 07:59:55;;;;;;;;;;;9.10;61.50;;;;;;5050936;28;20264;-91
2023/03/09 08:02:21;;;;;;;;;;;9.20;61.40;;;;;;5069258;28;19924;-89
2023/03/09 08:04:47;;;;;;;;;;;9.30;61.70;;;;;;5070860;28;19912;-90
2023/03/09 08:07:13;;;;;;;;;;;9.30;61.50;;;;;;5073352;28;19919;-90
2023/03/09 08:09:38;;;;;;;;;;;9.40;61.30;;;;;;5055007;28;19927;-89
2023/03/09 08:12:04;;;;;;;;;;;9.40;61.40;;;;;;5072727;28;19966;-90
2023/03/09 08:14:30;;;;;;;;;;;9.40;61.60;;;;;;5072622;28;19920;-88
2023/03/09 08:16:56;;;;;;;;;;;9.50;61.50;;;;;;5072616;28;20278;-90
2023/03/09 08:19:21;;;;;;;;;;;9.50;61.40;;;;;;5072586;28;20736;-90
2023/03/09 08:21:47;;;;;;;;;;;9.60;61.50;;;;;;5054781;28;20003;-89
2023/03/09 08:24:13;;;;;;;;;;;9.60;61.30;;;;;;5072765;28;19923;-88
2023/03/09 08:26:39;;;;;;;;;;;9.50;61.30;;;;;;5072440;28;19995;-90
2023/03/09 08:29:04;;;;;;;;;;;9.60;61.50;;;;;;5054281;28;19992;-90
2023/03/09 08:31:30;;;;;;;;;;;9.60;61.40;;;;;;5072147;28;20007;-89
2023/03/09 08:33:57;;;;;;;;;;;9.60;61.40;;;;;;5054250;28;19917;-90
2023/03/09 08:36:23;;;;;;;;;;;9.60;61.40;;;;;;5073055;28;19936;-89
2023/03/09 08:38:49;;;;;;;;;;;9.60;61.50;;;;;;5072220;28;19912;-89
2023/03/09 08:41:15;;;;;;;;;;;9.70;61.60;;;;;;5054708;28;19919;-90
2023/03/09 08:43:40;;;;;;;;;;;9.70;61.70;;;;;;5072415;28;19916;-89
2023/03/09 08:46:06;;;;;;;;;;;9.80;61.70;;;;;;5072159;28;20274;-89
2023/03/09 08:48:31;;;;;;;;;;;9.80;61.60;;;;;;5072149;28;19939;-89
2023/03/09 08:51:01;;;;;;;;;;;9.80;61.60;;;;;;5053736;28;19912;-90
2023/03/09 08:53:27;;;;;;;;;;;9.90;61.70;;;;;;5072118;28;19913;-90
2023/03/09 08:55:55;;;;;;;;;;;9.90;62.00;;;;;;5054080;28;19995;-90
2023/03/09 08:58:22;;;;;;;;;;;10.00;62.10;;;;;;5071851;28;20011;-89
2023/03/09 09:00:48;;;;;;;;;;;10.10;62.10;;;;;;5054486;28;19916;-89
2023/03/09 09:03:14;;;;;;;;;;;10.20;62.30;;;;;;5071613;28;20071;-89
2023/03/09 09:05:39;;;;;;;;;;;10.30;62.20;;;;;;5072076;28;20363;-90
2023/03/09 09:08:05;;;;;;;;;;;10.40;62.10;;;;;;5071704;28;20391;-89
2023/03/09 09:10:30;;;;;;;;;;;10.40;61.70;;;;;;5071880;28;19963;-90
2023/03/09 09:12:56;;;;;;;;;;;10.50;61.70;;;;;;5053399;28;19968;-88
2023/03/09 09:15:22;;;;;;;;;;;10.50;61.70;;;;;;5054135;28;19928;-88
2023/03/09 09:17:47;;;;;;;;;;;10.50;61.90;;;;;;5070810;28;20432;-89
2023/03/09 09:20:13;;;;;;;;;;;10.60;62.00;;;;;;5071240;28;19970;-88
2023/03/09 09:22:42;;;;;;;;;;;10.70;61.90;;;;;;5071401;28;19912;-89
2023/03/09 09:25:10;;;;;;;;;;;10.70;61.70;;;;;;5053405;28;19923;-88
2023/03/09 09:27:36;;;;;;;;;;;10.70;61.90;;;;;;5053153;28;20378;-88
2023/03/09 09:30:05;;;;;;;;;;;10.70;61.90;;;;;;5071717;28;20026;-91
2023/03/09 09:32:31;;;;;;;;;;;10.80;62.40;;;;;;5071392;28;19912;-89
2023/03/09 09:34:57;;;;;;;;;;;10.90;62.30;;;;;;5070903;28;20019;-90
2023/03/09 09:37:28;;;;;;;;;;;11.00;62.30;;;;;;5053531;28;19987;-91
2023/03/09 09:39:53;;;;;;;;;;;11.10;62.20;;;;;;5071935;28;19917;-88
2023/03/09 09:42:37;;;;;;;;;;;11.20;62.60;;;;;;5071565;28;19916;-88
2023/03/09 09:45:05;;;;;;;;;;;11.30;62.50;;;;;;5052813;28;19917;-89
2023/03/09 09:47:32;;;;;;;;;;;11.40;62.10;;;;;;5053071;28;20374;-91
2023/03/09 09:49:59;;;;;;;;;;;11.40;62.00;;;;;;5071309;28;19916;-90
2023/03/09 09:52:38;;;;;;;;;;;11.50;62.00;;;;;;5053055;28;19935;-89
2023/03/09 09:55:22;;;;;;;;;;;11.50;61.80;;;;;;5052661;28;19924;-88
2023/03/09 09:57:53;;;;;;;;;;;11.60;61.60;;;;;;5070805;28;20077;-89
2023/03/09 10:00:22;;;;;;;;;;;11.50;61.80;;;;;;5053037;28;19924;-89
2023/03/09 10:02:50;;;;;;;;;;;11.60;62.20;;;;;;5070928;28;20340;-88
2023/03/09 10:05:39;;;;;;;;;;;11.70;62.00;;;;;;5070162;28;19920;-90
2023/03/09 10:08:25;;;;;;;;;;;11.70;62.20;;;;;;5070686;28;19912;-89
2023/03/09 10:10:51;;;;;;;;;;;11.70;61.90;;;;;;5053010;28;19967;-88
2023/03/09 10:13:39;;;;;;;;;;;11.70;62.00;;;;;;5070473;28;19920;-89
2023/03/09 10:16:07;;;;;;;;;;;11.80;61.80;;;;;;5070497;28;19936;-89
2023/03/09 10:18:36;;;;;;;;;;;11.70;61.40;;;;;;5052658;28;20407;-89
2023/03/09 10:21:03;;;;;;;;;;;11.70;61.80;;;;;;5052672;28;19935;-88
2023/03/09 10:23:33;;;;;;;;;;;11.70;61.80;;;;;;5052705;28;19909;-87
2023/03/09 10:26:20;;;;;;;;;;;11.70;61.70;;;;;;5052361;28;19974;-91
2023/03/09 10:28:47;;;;;;;;;;;11.70;62.00;;;;;;5069650;28;19955;-91
2023/03/09 10:31:18;;;;;;;;;;;11.70;61.90;;;;;;5052658;28;19916;-89
2023/03/09 10:33:45;;;;;;;;;;;11.80;62.40;;;;;;5070257;28;20011;-89
2023/03/09 10:36:17;;;;;;;;;;;11.90;62.40;;;;;;5070474;28;20383;-89
2023/03/09 10:38:42;;;;;;;;;;;12.00;62.40;;;;;;5070107;28;19909;-90
2023/03/09 10:41:18;;;;;;;;;;;12.10;62.30;;;;;;5070739;28;19921;-91
2023/03/09 10:43:44;;;;;;;;;;;12.20;62.50;;;;;;5070253;28;19908;-90
2023/03/09 10:46:13;;;;;;;;;;;12.30;62.70;;;;;;5070469;28;19923;-90
2023/03/09 10:48:39;;;;;;;;;;;12.50;62.50;;;;;;5069977;28;19912;-90
2023/03/09 10:51:05;;;;;;;;;;;12.60;62.20;;;;;;5052579;28;19924;-89
2023/03/09 10:53:41;;;;;;;;;;;12.60;62.00;;;;;;5070583;28;19908;-91
2023/03/09 10:56:15;;;;;;;;;;;12.70;61.80;;;;;;5052080;28;20371;-89
2023/03/09 10:58:41;;;;;;;;;;;12.70;62.00;;;;;;5069745;28;19908;-90
2023/03/09 11:01:16;;;;;;;;;;;12.70;61.50;;;;;;5070096;28;19924;-89
2023/03/09 11:03:42;;;;;;;;;;;12.80;61.30;;;;;;5069912;28;20393;-90
2023/03/09 11:06:08;;;;;;;;;;;12.80;61.10;;;;;;5069758;28;19927;-90
2023/03/09 11:08:34;;;;;;;;;;;12.80;61.10;;;;;;5070598;28;19908;-90
2023/03/09 11:11:00;;;;;;;;;;;12.90;60.90;;;;;;5069922;28;20279;-89
2023/03/09 11:13:26;;;;;;;;;;;13.00;61.40;;;;;;5051560;28;19916;-90
2023/03/09 11:16:06;;;;;;;;;;;13.10;61.60;;;;;;5069720;28;19932;-89
2023/03/09 11:18:32;;;;;;;;;;;13.30;62.10;;;;;;5069173;28;20342;-90
2023/03/09 11:20:57;;;;;;;;;;;13.50;62.90;;;;;;5052214;28;20003;-90
2023/03/09 11:23:26;;;;;;;;;;;13.70;63.20;;;;;;5069835;28;19915;-90
2023/03/09 11:26:10;;;;;;;;;;;14.00;62.60;;;;;;5051759;28;19916;-91
2023/03/09 11:28:55;;;;;;;;;;;14.10;62.50;;;;;;5051491;28;19909;-88
2023/03/09 11:31:22;;;;;;;;;;;14.20;62.50;;;;;;5069296;28;19970;-90
2023/03/09 11:33:49;;;;;;;;;;;14.30;62.20;;;;;;5068196;28;20522;-89
2023/03/09 11:36:19;;;;;;;;;;;14.30;61.50;;;;;;5049733;28;19952;-89
2023/03/09 11:38:45;;;;;;;;;;;14.30;61.30;;;;;;5067568;28;19916;-90
2023/03/09 11:41:23;;;;;;;;;;;14.30;61.20;;;;;;5053702;28;20512;-90
2023/03/09 11:43:51;;;;;;;;;;;14.20;60.90;;;;;;5072027;28;20351;-90
2023/03/09 11:46:17;;;;;;;;;;;14.00;60.50;;;;;;5072851;28;20010;-93
2023/03/09 11:48:47;;;;;;;;;;;13.90;60.50;;;;;;5055498;28;19908;-90
2023/03/09 11:51:16;;;;;;;;;;;13.80;60.00;;;;;;5074158;28;19963;-89
2023/03/09 11:53:41;;;;;;;;;;;13.70;60.30;;;;;;5055855;28;19908;-89
2023/03/09 11:56:15;;;;;;;;;;;13.70;60.20;;;;;;5073231;28;19924;-90
2023/03/09 11:58:42;;;;;;;;;;;13.50;59.80;;;;;;5055452;28;19915;-91
2023/03/09 12:01:10;;;;;;;;;;;13.40;60.00;;;;;;5073286;28;19917;-90
2023/03/09 12:03:40;;;;;;;;;;;13.30;60.20;;;;;;5072932;28;19966;-89
2023/03/09 12:06:14;;;;;;;;;;;13.30;60.60;;;;;;5073304;28;19923;-89
2023/03/09 12:08:42;;;;;;;;;;;13.30;60.90;;;;;;5072820;28;19913;-89
2023/03/09 12:11:20;;;;;;;;;;;13.20;60.50;;;;;;5051467;28;20474;-89
2023/03/09 12:13:49;;;;;;;;;;;13.20;60.70;;;;;;5042893;28;19909;-90
2023/03/09 12:16:33;;;;;;;;;;;13.20;60.10;;;;;;5053243;28;19925;-90
2023/03/09 12:19:05;;;;;;;;;;;13.00;60.10;;;;;;5044269;28;19909;-89
2023/03/09 12:21:30;;;;;;;;;;;13.00;60.40;;;;;;5072792;28;19943;-89
2023/03/09 12:23:57;;;;;;;;;;;12.90;60.30;;;;;;5073015;28;20454;-90
2023/03/09 12:26:23;;;;;;;;;;;12.80;60.50;;;;;;5069370;28;19928;-90
2023/03/09 12:29:12;;;;;;;;;;;12.80;60.90;;;;;;5035411;28;19909;-90
2023/03/09 12:31:37;;;;;;;;;;;12.80;61.10;;;;;;4988555;28;19917;-91
2023/03/09 12:34:05;;;;;;;;;;;12.80;61.60;;;;;;5035058;28;19909;-88
2023/03/09 12:36:39;;;;;;;;;;;12.80;61.30;;;;;;5034503;28;19931;-91
2023/03/09 12:39:31;;;;;;;;;;;12.80;61.30;;;;;;5034261;28;19909;-89
2023/03/09 12:42:22;;;;;;;;;;;12.80;61.20;;;;;;5034671;28;19909;-92
2023/03/09 12:44:48;;;;;;;;;;;12.80;61.10;;;;;;5064094;28;19943;-91
2023/03/09 12:47:37;;;;;;;;;;;12.80;61.20;;;;;;5054025;28;19962;-89
2023/03/09 12:50:21;;;;;;;;;;;12.80;61.40;;;;;;5008213;28;19924;-88
2023/03/09 12:53:08;;;;;;;;;;;12.80;61.40;;;;;;5053018;28;20379;-89
2023/03/09 12:55:33;;;;;;;;;;;12.80;61.30;;;;;;5054303;28;19932;-90
2023/03/09 12:58:17;;;;;;;;;;;12.70;60.70;;;;;;5072178;28;19912;-89
2023/03/09 13:00:49;;;;;;;;;;;12.50;60.50;;;;;;5053875;28;19917;-89
2023/03/09 13:03:21;;;;;;;;;;;12.40;61.20;;;;;;5053763;28;19908;-92
2023/03/09 13:05:48;;;;;;;;;;;12.40;61.30;;;;;;5053807;28;20386;-91
2023/03/09 13:08:34;;;;;;;;;;;12.30;61.10;;;;;;5053753;28;19916;-91
2023/03/09 13:11:18;;;;;;;;;;;12.20;61.10;;;;;;5071961;28;19973;-90
2023/03/09 13:13:45;;;;;;;;;;;12.10;61.30;;;;;;5052835;28;19921;-89
2023/03/09 13:16:29;;;;;;;;;;;12.00;61.80;;;;;;5072382;28;19960;-88
2023/03/09 13:19:13;;;;;;;;;;;11.90;61.10;;;;;;5053579;28;19923;-89
2023/03/09 13:21:40;;;;;;;;;;;11.80;61.40;;;;;;5053715;28;20389;-92
2023/03/09 13:24:19;;;;;;;;;;;11.80;61.80;;;;;;5071386;28;19955;-91
2023/03/09 13:26:46;;;;;;;;;;;11.70;61.80;;;;;;5071420;28;19977;-90
2023/03/09 13:29:15;;;;;;;;;;;11.70;61.80;;;;;;5053327;28;19959;-89
2023/03/09 13:31:41;;;;;;;;;;;11.50;61.90;;;;;;5071688;28;19920;-90
2023/03/09 13:34:15;;;;;;;;;;;11.50;61.80;;;;;;5053459;28;19908;-91
2023/03/09 13:36:42;;;;;;;;;;;11.50;61.90;;;;;;5071390;28;19935;-91
2023/03/09 13:39:13;;;;;;;;;;;11.40;62.20;;;;;;5071334;28;19966;-92
2023/03/09 13:41:39;;;;;;;;;;;11.40;62.30;;;;;;5071729;28;19952;-90
2023/03/09 13:44:05;;;;;;;;;;;11.40;62.50;;;;;;5071290;28;19915;-90
2023/03/09 13:46:32;;;;;;;;;;;11.40;62.50;;;;;;5071205;28;19913;-89
2023/03/09 13:49:07;;;;;;;;;;;11.40;62.50;;;;;;5053014;28;19912;-89
2023/03/09 13:51:44;;;;;;;;;;;11.40;62.00;;;;;;5052820;28;19917;-91
2023/03/09 13:54:23;;;;;;;;;;;11.30;62.20;;;;;;5071482;28;19915;-88
2023/03/09 13:57:00;;;;;;;;;;;11.30;61.90;;;;;;5053354;28;20286;-90
2023/03/09 13:59:30;;;;;;;;;;;11.20;62.00;;;;;;5052907;28;19912;-91
2023/03/09 14:02:00;;;;;;;;;;;11.10;62.00;;;;;;5053076;28;19962;-91
2023/03/09 14:04:26;;;;;;;;;;;11.20;62.20;;;;;;5052910;28;19958;-90
2023/03/09 14:06:54;;;;;;;;;;;11.20;62.30;;;;;;5053385;28;20374;-91
2023/03/09 14:09:32;;;;;;;;;;;11.10;62.10;;;;;;5070545;28;20318;-92
2023/03/09 14:11:57;;;;;;;;;;;11.10;62.20;;;;;;5070873;28;19916;-91
2023/03/09 14:14:23;;;;;;;;;;;11.00;61.90;;;;;;5052545;28;19999;-90
2023/03/09 14:16:50;;;;;;;;;;;11.00;61.60;;;;;;5052846;28;19912;-90
2023/03/09 14:19:29;;;;;;;;;;;10.80;61.60;;;;;;5070074;28;20280;-91
2023/03/09 14:21:56;;;;;;;;;;;10.80;61.60;;;;;;5052738;28;20006;-91
2023/03/09 14:24:28;;;;;;;;;;;10.70;61.30;;;;;;5070477;28;20051;-89
2023/03/09 14:26:54;;;;;;;;;;;10.60;61.30;;;;;;5052603;28;20359;-93
2023/03/09 14:29:26;;;;;;;;;;;10.40;61.00;;;;;;5070452;28;19923;-90
2023/03/09 14:32:10;;;;;;;;;;;10.30;61.00;;;;;;5070352;28;19987;-91